createdAt,value
2023-01-30T00:01:41.026Z,100836.16
2023-01-30T00:04:44.566Z,100832.72
2023-01-30T00:07:48.156Z,100814.75
2023-01-30T00:10:51.530Z,100818.09
2023-01-30T00:13:54.615Z,100791.53
2023-01-30T00:17:01.880Z,100788.97
2023-01-30T00:20:06.203Z,100771.91
2023-01-30T00:23:10.022Z,100760.81
2023-01-30T00:26:14.091Z,100765.94
2023-01-30T00:29:18.569Z,100743.06
2023-01-30T00:32:23.797Z,100749.91
2023-01-30T00:35:29.256Z,100722.44
2023-01-30T00:38:32.946Z,100703.59
2023-01-30T00:41:50.075Z,100704.44
2023-01-30T00:45:11.166Z,100688.13
2023-01-30T00:48:15.608Z,100662.75
2023-01-30T00:51:18.678Z,100651.72
2023-01-30T00:54:21.659Z,100636.53
2023-01-30T00:57:24.816Z,100640.00
2023-01-30T01:00:28.038Z,100617.81
2023-01-30T01:03:32.587Z,100616.97
2023-01-30T01:06:36.865Z,100619.63
2023-01-30T01:09:40.385Z,100632.47
2023-01-30T01:12:44.642Z,100623.88
2023-01-30T01:15:47.834Z,100618.75
2023-01-30T01:18:52.919Z,100617.81
2023-01-30T01:21:56.047Z,100590.50
2023-01-30T01:24:59.753Z,100544.25
2023-01-30T01:28:07.570Z,100548.59
2023-01-30T01:31:11.872Z,100553.78
2023-01-30T01:34:16.532Z,100548.69
2023-01-30T01:37:28.955Z,100544.41
2023-01-30T01:40:49.372Z,100536.78
2023-01-30T01:44:03.563Z,100554.59
2023-01-30T01:47:06.706Z,100563.16
2023-01-30T01:50:16.985Z,100566.56
2023-01-30T01:53:26.131Z,100557.00
2023-01-30T01:56:30.431Z,100562.97
2023-01-30T01:59:38.073Z,100536.47
2023-01-30T02:02:44.126Z,100533.00
2023-01-30T02:05:54.501Z,100522.72
2023-01-30T02:09:04.977Z,100503.13
2023-01-30T02:12:09.906Z,100479.34
2023-01-30T02:15:13.922Z,100472.50
2023-01-30T02:18:18.938Z,100473.53
2023-01-30T02:22:09.500Z,100454.91
2023-01-30T02:25:47.644Z,100435.28
2023-01-30T02:29:32.183Z,100412.28
2023-01-30T02:32:48.159Z,100406.25
2023-01-30T02:35:58.640Z,100408.75
2023-01-30T02:39:14.730Z,100412.97
2023-01-30T02:42:30.755Z,100408.75
2023-01-30T02:45:40.187Z,100406.16
2023-01-30T02:48:48.800Z,100385.53
2023-01-30T02:52:02.794Z,100360.78
2023-01-30T02:55:10.959Z,100361.00
2023-01-30T02:58:16.124Z,100350.97
2023-01-30T03:01:43.408Z,100329.88
2023-01-30T03:05:10.075Z,100313.97
2023-01-30T03:08:27.253Z,100308.03
2023-01-30T03:11:45.778Z,100298.59
2023-01-30T03:14:53.809Z,100293.47
2023-01-30T03:17:58.219Z,100283.16
2023-01-30T03:21:07.889Z,100277.84
2023-01-30T03:24:15.235Z,100266.75
2023-01-30T03:27:18.796Z,100259.91
2023-01-30T03:30:25.934Z,100263.19
2023-01-30T03:33:36.947Z,100258.91
2023-01-30T03:36:42.109Z,100246.84
2023-01-30T03:39:45.505Z,100244.16
2023-01-30T03:42:51.431Z,100244.88
2023-01-30T03:45:54.633Z,100242.25
2023-01-30T03:48:58.105Z,100239.53
2023-01-30T03:52:06.460Z,100215.47
2023-01-30T03:55:11.470Z,100211.16
2023-01-30T03:58:16.696Z,100194.94
2023-01-30T04:01:21.385Z,100200.06
2023-01-30T04:04:24.454Z,100193.94
2023-01-30T04:07:31.237Z,100176.75
2023-01-30T04:10:34.462Z,100167.19
2023-01-30T04:13:37.696Z,100165.31
2023-01-30T04:16:41.604Z,100159.25
2023-01-30T04:20:10.040Z,100149.69
2023-01-30T04:23:17.201Z,100147.88
2023-01-30T04:26:20.332Z,100146.91
2023-01-30T04:29:23.463Z,100139.84
2023-01-30T04:32:28.658Z,100148.16
2023-01-30T04:35:31.657Z,100136.97
2023-01-30T04:38:36.785Z,100126.56
2023-01-30T04:41:43.933Z,100114.38
2023-01-30T04:44:48.878Z,100121.78
2023-01-30T04:47:55.395Z,100127.56
2023-01-30T04:51:01.538Z,100118.91
2023-01-30T04:54:06.537Z,100098.22
2023-01-30T04:57:09.660Z,100113.44
2023-01-30T05:00:13.974Z,100106.63
2023-01-30T05:03:25.625Z,100103.06
2023-01-30T05:06:29.513Z,100102.31
2023-01-30T05:09:33.774Z,100091.22
2023-01-30T05:12:37.140Z,100086.91
2023-01-30T05:15:41.216Z,100093.16
2023-01-30T05:18:44.637Z,100078.72
2023-01-30T05:21:47.681Z,100069.44
2023-01-30T05:24:52.254Z,100069.69
2023-01-30T05:27:55.380Z,100057.06
2023-01-30T05:31:05.110Z,100063.19
2023-01-30T05:34:13.153Z,100052.00
2023-01-30T05:37:50.830Z,100042.66
2023-01-30T05:41:15.945Z,100023.78
2023-01-30T05:44:21.772Z,100023.78
2023-01-30T05:47:25.023Z,100011.91
2023-01-30T05:50:28.429Z,100013.59
2023-01-30T05:53:35.237Z,100000.75
2023-01-30T05:56:41.905Z,99987.06
2023-01-30T05:59:47.396Z,99975.22
2023-01-30T06:02:50.593Z,99981.38
2023-01-30T06:05:53.673Z,99982.28
2023-01-30T06:08:57.536Z,99980.72
2023-01-30T06:12:01.909Z,99973.66
2023-01-30T06:15:06.702Z,99965.09
2023-01-30T06:18:10.232Z,99970.00
2023-01-30T06:21:14.635Z,99964.66
2023-01-30T06:24:17.703Z,99965.38
2023-01-30T06:27:22.145Z,99965.22
2023-01-30T06:30:25.335Z,99956.47
2023-01-30T06:33:28.664Z,99956.19
2023-01-30T06:36:31.703Z,99961.94
2023-01-30T06:39:34.828Z,99960.00
2023-01-30T06:42:39.681Z,99963.91
2023-01-30T06:45:43.043Z,99955.25
2023-01-30T06:48:46.018Z,99955.66
2023-01-30T06:51:49.049Z,99942.66
2023-01-30T06:54:55.054Z,99941.53
2023-01-30T06:58:11.666Z,99932.53
2023-01-30T07:01:14.973Z,99925.44
2023-01-30T07:04:18.017Z,99914.91
2023-01-30T07:07:21.130Z,99908.56
2023-01-30T07:10:29.194Z,99902.91
2023-01-30T07:13:33.658Z,99906.81
2023-01-30T07:16:36.709Z,99908.91
2023-01-30T07:19:42.486Z,99894.00
2023-01-30T07:22:51.482Z,99888.63
2023-01-30T07:25:55.436Z,99885.03
2023-01-30T07:28:59.792Z,99887.88
2023-01-30T07:32:03.169Z,99885.75
2023-01-30T07:35:09.573Z,99885.41
2023-01-30T07:38:12.601Z,99882.44
2023-01-30T07:41:15.797Z,99885.59
2023-01-30T07:44:20.226Z,99873.22
2023-01-30T07:47:23.467Z,99877.97
2023-01-30T07:50:27.463Z,99874.13
2023-01-30T07:53:30.568Z,99887.41
2023-01-30T07:56:34.110Z,99887.09
2023-01-30T07:59:38.808Z,99898.69
2023-01-30T08:02:44.479Z,99897.69
2023-01-30T08:05:48.174Z,99899.75
2023-01-30T08:08:52.260Z,99904.66
2023-01-30T08:11:55.516Z,99896.56
2023-01-30T08:15:06.184Z,99886.03
2023-01-30T08:18:12.661Z,99887.66
2023-01-30T08:21:15.820Z,99893.22
2023-01-30T08:24:19.019Z,99896.44
2023-01-30T08:27:22.356Z,99889.47
2023-01-30T08:30:26.986Z,99878.16
2023-01-30T08:33:32.399Z,99873.56
2023-01-30T08:36:35.503Z,99851.19
2023-01-30T08:39:45.822Z,99851.94
2023-01-30T08:42:48.875Z,99877.44
2023-01-30T08:45:57.828Z,99879.28
2023-01-30T08:49:00.868Z,99883.41
2023-01-30T08:52:04.185Z,99881.59
2023-01-30T08:55:12.204Z,99874.59
2023-01-30T08:58:15.439Z,99858.97
2023-01-30T09:01:20.054Z,99878.19
2023-01-30T09:04:26.485Z,99871.03
2023-01-30T09:07:31.487Z,99880.16
2023-01-30T09:10:34.587Z,99871.41
2023-01-30T09:13:38.856Z,99882.38
2023-01-30T09:16:48.297Z,99886.59
2023-01-30T09:19:51.575Z,99895.25
2023-01-30T09:22:54.703Z,99898.03
2023-01-30T09:25:57.809Z,99891.03
2023-01-30T09:29:01.237Z,99903.81
2023-01-30T09:32:05.990Z,99900.25
2023-01-30T09:35:14.427Z,99897.56
2023-01-30T09:38:18.542Z,99908.53
2023-01-30T09:41:47.754Z,99907.41
2023-01-30T09:45:28.904Z,99907.25
2023-01-30T09:48:46.558Z,99894.34
2023-01-30T09:52:09.908Z,99900.78
2023-01-30T09:55:20.096Z,99899.59
2023-01-30T09:58:25.306Z,99900.25
2023-01-30T10:01:37.919Z,99902.47
2023-01-30T10:05:00.614Z,99902.09
2023-01-30T10:08:31.254Z,99897.69
2023-01-30T10:11:52.691Z,99899.13
2023-01-30T10:15:20.397Z,99905.59
2023-01-30T10:18:52.967Z,99898.19
2023-01-30T10:22:03.745Z,99916.25
2023-01-30T10:25:26.359Z,99919.81
2023-01-30T10:28:34.613Z,99921.38
2023-01-30T10:31:47.842Z,99940.09
2023-01-30T10:34:55.286Z,99954.38
2023-01-30T10:38:09.589Z,99948.00
2023-01-30T10:41:27.102Z,99957.41
2023-01-30T10:44:30.319Z,99954.81
2023-01-30T10:47:47.873Z,99972.91
2023-01-30T10:50:56.482Z,99966.19
2023-01-30T10:54:04.845Z,99975.69
2023-01-30T10:57:20.107Z,99981.50
2023-01-30T11:00:30.759Z,99985.81
2023-01-30T11:03:39.496Z,99985.00
2023-01-30T11:06:45.320Z,99981.69
2023-01-30T11:09:50.591Z,99975.50
2023-01-30T11:12:57.490Z,99964.16
2023-01-30T11:16:06.604Z,99960.00
2023-01-30T11:19:20.668Z,99962.69
2023-01-30T11:22:27.340Z,99957.69
2023-01-30T11:25:32.068Z,99948.13
2023-01-30T11:28:43.255Z,99939.63
2023-01-30T11:31:52.273Z,99936.47
2023-01-30T11:35:12.924Z,99926.19
2023-01-30T11:38:25.444Z,99915.69
2023-01-30T11:41:30.886Z,99918.16
2023-01-30T11:44:58.614Z,99903.69
2023-01-30T11:49:09.110Z,99904.97
2023-01-30T11:52:14.336Z,99912.56
2023-01-30T11:55:20.477Z,99914.78
2023-01-30T11:58:25.189Z,99900.00
2023-01-30T12:01:32.083Z,99905.00
2023-01-30T12:04:38.517Z,99913.41
2023-01-30T12:07:41.775Z,99922.38
2023-01-30T12:10:48.966Z,99892.50
2023-01-30T12:13:56.833Z,99885.31
2023-01-30T12:17:12.321Z,99896.25
2023-01-30T12:20:25.620Z,99851.03
2023-01-30T12:23:39.466Z,99842.53
2023-01-30T12:26:48.536Z,99837.34
2023-01-30T12:30:01.221Z,99822.84
2023-01-30T12:33:07.923Z,99823.56
2023-01-30T12:36:22.721Z,99817.13
2023-01-30T12:39:48.019Z,99807.03
2023-01-30T12:43:21.278Z,99806.72
2023-01-30T12:46:52.533Z,99814.41
2023-01-30T12:50:21.179Z,99809.72
2023-01-30T12:53:37.789Z,99818.31
2023-01-30T12:57:01.571Z,99824.53
2023-01-30T13:00:37.138Z,99829.91
2023-01-30T13:03:51.968Z,99841.72
2023-01-30T13:07:14.515Z,99845.44
2023-01-30T13:10:27.807Z,99852.84
2023-01-30T13:13:42.396Z,99842.50
2023-01-30T13:17:02.141Z,99846.13
2023-01-30T13:20:24.789Z,99842.28
2023-01-30T13:23:41.526Z,99842.09
2023-01-30T13:26:45.706Z,99835.69
2023-01-30T13:29:53.725Z,99819.88
2023-01-30T13:33:01.866Z,99835.91
2023-01-30T13:36:17.589Z,99813.34
2023-01-30T13:39:31.654Z,99805.72
2023-01-30T13:43:23.974Z,99806.00
2023-01-30T13:46:44.679Z,99832.38
2023-01-30T13:50:00.311Z,99835.44
2023-01-30T13:53:11.092Z,99837.22
2023-01-30T13:56:40.388Z,99841.56
2023-01-30T14:00:33.125Z,99827.75
2023-01-30T14:03:37.558Z,99851.41
2023-01-30T14:06:42.453Z,99838.31
2023-01-30T14:10:13.304Z,99832.63
2023-01-30T14:13:18.522Z,99847.00
2023-01-30T14:16:22.098Z,99840.16
2023-01-30T14:19:49.749Z,99837.75
2023-01-30T14:22:56.221Z,99826.31
2023-01-30T14:26:01.772Z,99823.00
2023-01-30T14:29:07.189Z,99826.88
2023-01-30T14:32:57.216Z,99839.41
2023-01-30T14:36:37.376Z,99843.81
2023-01-30T14:39:43.307Z,99853.06
2023-01-30T14:43:49.721Z,99868.91
2023-01-30T14:46:56.765Z,99875.53
2023-01-30T14:50:02.391Z,99886.41
2023-01-30T14:53:05.780Z,99895.22
2023-01-30T14:56:08.918Z,99892.16
2023-01-30T15:00:16.521Z,99898.31
2023-01-30T15:03:47.359Z,99903.81
2023-01-30T15:06:53.467Z,99906.94
2023-01-30T15:10:00.209Z,99913.91
2023-01-30T15:13:25.758Z,99920.91
2023-01-30T15:16:59.945Z,99912.94
2023-01-30T15:20:20.084Z,99904.94
2023-01-30T15:24:10.103Z,99918.19
2023-01-30T15:27:21.939Z,99927.69
2023-01-30T15:30:47.132Z,99930.16
2023-01-30T15:33:56.758Z,99937.81
2023-01-30T15:37:04.110Z,99948.44
2023-01-30T15:40:24.319Z,99955.22
2023-01-30T15:44:01.777Z,99950.28
2023-01-30T15:47:23.016Z,99960.38
2023-01-30T15:50:28.405Z,99977.69
2023-01-30T15:53:35.704Z,99973.22
2023-01-30T15:56:41.425Z,99975.69
2023-01-30T15:59:48.665Z,99979.00
2023-01-30T16:02:51.721Z,99973.84
2023-01-30T16:05:58.290Z,99965.38
2023-01-30T16:09:03.921Z,99983.44
2023-01-30T16:12:24.432Z,99986.84
2023-01-30T16:15:36.396Z,99995.31
2023-01-30T16:18:44.359Z,100000.03
2023-01-30T16:21:49.211Z,100009.53
2023-01-30T16:24:54.614Z,100011.19
2023-01-30T16:27:58.620Z,100016.44
2023-01-30T16:31:03.935Z,100032.81
2023-01-30T16:34:07.316Z,100017.69
2023-01-30T16:37:28.220Z,100034.41
2023-01-30T16:40:44.206Z,100022.94
2023-01-30T16:43:47.983Z,100024.78
2023-01-30T16:47:02.299Z,100017.97
2023-01-30T16:50:14.022Z,100010.97
2023-01-30T16:53:24.182Z,100034.28
2023-01-30T16:56:29.471Z,100023.13
2023-01-30T16:59:39.337Z,100029.59
2023-01-30T17:02:58.099Z,100034.56
2023-01-30T17:06:06.490Z,100036.06
2023-01-30T17:09:44.376Z,100051.38
2023-01-30T17:12:50.865Z,100047.88
2023-01-30T17:16:26.511Z,100074.34
2023-01-30T17:19:29.703Z,100078.31
2023-01-30T17:22:33.391Z,100079.16
2023-01-30T17:25:41.429Z,100072.97
2023-01-30T17:28:45.161Z,100091.78
2023-01-30T17:31:52.514Z,100087.94
2023-01-30T17:34:56.119Z,100088.09
2023-01-30T17:38:05.415Z,100101.75
2023-01-30T17:41:19.611Z,100109.97
2023-01-30T17:44:22.688Z,100124.72
2023-01-30T17:47:30.472Z,100132.38
2023-01-30T17:50:33.600Z,100134.50
2023-01-30T17:53:36.707Z,100141.25
2023-01-30T17:56:43.722Z,100137.50
2023-01-30T17:59:50.690Z,100158.78
2023-01-30T18:02:55.516Z,100149.47
2023-01-30T18:06:00.122Z,100170.78
2023-01-30T18:09:03.649Z,100175.59
2023-01-30T18:12:07.915Z,100184.66
2023-01-30T18:15:15.955Z,100191.47
2023-01-30T18:18:20.869Z,100199.06
2023-01-30T18:21:24.266Z,100215.78
2023-01-30T18:24:28.629Z,100231.69
2023-01-30T18:27:34.095Z,100249.56
2023-01-30T18:30:49.457Z,100257.88
2023-01-30T18:33:55.312Z,100253.28
2023-01-30T18:36:58.629Z,100251.72
2023-01-30T18:40:01.773Z,100281.78
2023-01-30T18:43:07.067Z,100290.94
2023-01-30T18:46:13.065Z,100304.09
2023-01-30T18:49:27.582Z,100305.72
2023-01-30T18:52:30.932Z,100314.28
2023-01-30T18:55:34.530Z,100327.50
2023-01-30T18:58:37.980Z,100329.59
2023-01-30T19:01:43.142Z,100338.59
2023-01-30T19:04:50.369Z,100347.09
2023-01-30T19:07:54.602Z,100336.75
2023-01-30T19:11:24.934Z,100350.75
2023-01-30T19:14:31.867Z,100380.06
2023-01-30T19:17:35.276Z,100368.06
2023-01-30T19:20:40.153Z,100371.25
2023-01-30T19:23:43.833Z,100375.56
2023-01-30T19:26:48.968Z,100392.06
2023-01-30T19:29:52.290Z,100394.06
2023-01-30T19:32:58.671Z,100402.88
2023-01-30T19:36:11.933Z,100415.03
2023-01-30T19:39:15.133Z,100426.47
2023-01-30T19:42:18.284Z,100427.94
2023-01-30T19:45:21.289Z,100447.00
2023-01-30T19:48:28.065Z,100445.03
2023-01-30T19:51:39.483Z,100452.88
2023-01-30T19:54:42.539Z,100453.94
2023-01-30T19:57:45.709Z,100456.59
2023-01-30T20:00:52.674Z,100460.84
2023-01-30T20:03:56.267Z,100464.34
2023-01-30T20:07:06.950Z,100472.47
2023-01-30T20:10:11.718Z,100476.88
2023-01-30T20:13:14.856Z,100480.63
2023-01-30T20:16:20.773Z,100491.25
2023-01-30T20:19:24.102Z,100498.06
2023-01-30T20:22:28.563Z,100494.75
2023-01-30T20:25:31.524Z,100492.53
2023-01-30T20:28:37.922Z,100514.00
2023-01-30T20:31:41.133Z,100516.38
2023-01-30T20:34:44.230Z,100523.34
2023-01-30T20:37:48.564Z,100524.94
2023-01-30T20:40:51.575Z,100519.47
2023-01-30T20:43:57.964Z,100539.06
2023-01-30T20:47:01.078Z,100537.38
2023-01-30T20:50:04.453Z,100552.34
2023-01-30T20:53:11.929Z,100550.13
2023-01-30T20:56:17.297Z,100579.22
2023-01-30T20:59:23.973Z,100580.13
2023-01-30T21:02:28.585Z,100585.94
2023-01-30T21:05:31.938Z,100581.63
2023-01-30T21:08:41.484Z,100596.22
2023-01-30T21:11:45.122Z,100605.75
2023-01-30T21:14:51.903Z,100618.06
2023-01-30T21:17:55.671Z,100621.53
2023-01-30T21:20:58.850Z,100612.88
2023-01-30T21:24:07.971Z,100618.22
2023-01-30T21:27:11.140Z,100627.63
2023-01-30T21:30:14.749Z,100609.13
2023-01-30T21:33:17.927Z,100632.25
2023-01-30T21:36:20.896Z,100637.84
2023-01-30T21:39:42.814Z,100659.34
2023-01-30T21:43:03.770Z,100659.78
2023-01-30T21:46:07.359Z,100664.78
2023-01-30T21:49:14.740Z,100675.09
2023-01-30T21:52:18.157Z,100677.91
2023-01-30T21:55:24.969Z,100671.44
2023-01-30T21:58:32.429Z,100683.31
2023-01-30T22:01:37.683Z,100691.16
2023-01-30T22:04:40.893Z,100693.88
2023-01-30T22:07:46.364Z,100702.06
2023-01-30T22:10:50.779Z,100704.00
2023-01-30T22:13:54.900Z,100716.38
2023-01-30T22:16:58.117Z,100721.25
2023-01-30T22:20:02.992Z,100724.03
2023-01-30T22:23:06.287Z,100742.50
2023-01-30T22:26:12.894Z,100728.81
2023-01-30T22:29:18.033Z,100736.56
2023-01-30T22:32:21.043Z,100732.38
2023-01-30T22:35:26.271Z,100738.66
2023-01-30T22:38:30.543Z,100751.72
2023-01-30T22:41:37.146Z,100756.31
2023-01-30T22:44:40.365Z,100751.16
2023-01-30T22:47:43.359Z,100754.75
2023-01-30T22:50:46.322Z,100756.78
2023-01-30T22:53:51.687Z,100749.78
2023-01-30T22:56:56.100Z,100749.84
2023-01-30T23:00:00.135Z,100753.44
2023-01-30T23:03:03.417Z,100743.25
2023-01-30T23:06:09.920Z,100757.06
2023-01-30T23:09:17.129Z,100768.25
2023-01-30T23:12:39.567Z,100761.44
2023-01-30T23:15:46.546Z,100767.50
2023-01-30T23:18:55.392Z,100765.84
2023-01-30T23:21:58.950Z,100769.53
2023-01-30T23:25:02.167Z,100763.44
2023-01-30T23:28:06.850Z,100771.09
2023-01-30T23:31:12.560Z,100783.38
2023-01-30T23:34:19.396Z,100785.97
2023-01-30T23:37:42.671Z,100794.78
2023-01-30T23:40:46.806Z,100783.81
2023-01-30T23:43:52.071Z,100793.75
2023-01-30T23:46:55.160Z,100777.44
2023-01-30T23:49:58.384Z,100785.22
2023-01-30T23:53:01.468Z,100788.78
2023-01-30T23:56:06.835Z,100792.19
2023-01-30T23:59:11.879Z,100793.47
